sensor_id;sensor_type;location;lat;lon;timestamp;P1;durP1;ratioP1;P2;durP2;ratioP2
21798;SDS011;24973;47.178;15.316;2022-07-23T00:00:19;10.90;;;8.90;;
21798;SDS011;24973;47.178;15.316;2022-07-23T00:03:08;9.70;;;8.80;;
21798;SDS011;24973;47.178;15.316;2022-07-23T00:05:57;9.53;;;8.53;;
21798;SDS011;24973;47.178;15.316;2022-07-23T00:08:46;9.13;;;8.23;;
21798;SDS011;24973;47.178;15.316;2022-07-23T00:11:34;11.37;;;8.83;;
21798;SDS011;24973;47.178;15.316;2022-07-23T00:14:23;10.30;;;9.20;;
21798;SDS011;24973;47.178;15.316;2022-07-23T00:17:13;9.87;;;8.90;;
21798;SDS011;24973;47.178;15.316;2022-07-23T00:20:02;9.80;;;8.97;;
21798;SDS011;24973;47.178;15.316;2022-07-23T00:22:54;12.40;;;8.97;;
21798;SDS011;24973;47.178;15.316;2022-07-23T00:25:43;10.80;;;8.40;;
21798;SDS011;24973;47.178;15.316;2022-07-23T00:28:32;10.47;;;9.60;;
21798;SDS011;24973;47.178;15.316;2022-07-23T00:31:21;10.57;;;8.53;;
21798;SDS011;24973;47.178;15.316;2022-07-23T00:34:11;11.07;;;8.90;;
21798;SDS011;24973;47.178;15.316;2022-07-23T00:37:00;9.07;;;8.23;;
21798;SDS011;24973;47.178;15.316;2022-07-23T00:39:48;12.70;;;9.80;;
21798;SDS011;24973;47.178;15.316;2022-07-23T00:42:37;9.40;;;8.50;;
21798;SDS011;24973;47.178;15.316;2022-07-23T00:45:26;10.13;;;9.13;;
21798;SDS011;24973;47.178;15.316;2022-07-23T00:48:16;9.50;;;8.60;;
21798;SDS011;24973;47.178;15.316;2022-07-23T00:51:06;8.57;;;7.77;;
21798;SDS011;24973;47.178;15.316;2022-07-23T00:53:55;10.03;;;9.03;;
21798;SDS011;24973;47.178;15.316;2022-07-23T00:56:44;8.83;;;7.97;;
21798;SDS011;24973;47.178;15.316;2022-07-23T00:59:34;12.03;;;8.40;;
21798;SDS011;24973;47.178;15.316;2022-07-23T01:02:23;10.53;;;8.47;;
21798;SDS011;24973;47.178;15.316;2022-07-23T01:05:12;9.80;;;8.80;;
21798;SDS011;24973;47.178;15.316;2022-07-23T01:08:02;9.33;;;8.03;;
21798;SDS011;24973;47.178;15.316;2022-07-23T01:10:53;9.40;;;8.50;;
21798;SDS011;24973;47.178;15.316;2022-07-23T01:13:42;10.13;;;9.10;;
21798;SDS011;24973;47.178;15.316;2022-07-23T01:16:31;9.87;;;8.87;;
21798;SDS011;24973;47.178;15.316;2022-07-23T01:19:20;8.70;;;7.83;;
21798;SDS011;24973;47.178;15.316;2022-07-23T01:22:09;10.77;;;9.77;;
21798;SDS011;24973;47.178;15.316;2022-07-23T01:25:00;8.53;;;7.80;;
21798;SDS011;24973;47.178;15.316;2022-07-23T01:27:49;9.97;;;8.90;;
21798;SDS011;24973;47.178;15.316;2022-07-23T01:30:38;10.33;;;8.80;;
21798;SDS011;24973;47.178;15.316;2022-07-23T01:33:27;10.30;;;9.30;;
21798;SDS011;24973;47.178;15.316;2022-07-23T01:36:16;10.50;;;9.50;;
21798;SDS011;24973;47.178;15.316;2022-07-23T01:39:06;11.77;;;8.87;;
21798;SDS011;24973;47.178;15.316;2022-07-23T01:41:56;9.70;;;8.77;;
21798;SDS011;24973;47.178;15.316;2022-07-23T01:44:45;10.23;;;8.57;;
21798;SDS011;24973;47.178;15.316;2022-07-23T01:47:34;10.37;;;9.37;;
21798;SDS011;24973;47.178;15.316;2022-07-23T01:50:22;11.00;;;9.40;;
21798;SDS011;24973;47.178;15.316;2022-07-23T01:53:11;11.23;;;7.83;;
21798;SDS011;24973;47.178;15.316;2022-07-23T01:56:00;11.07;;;9.50;;
21798;SDS011;24973;47.178;15.316;2022-07-23T01:58:51;12.47;;;9.10;;
21798;SDS011;24973;47.178;15.316;2022-07-23T02:01:40;9.30;;;8.40;;
21798;SDS011;24973;47.178;15.316;2022-07-23T02:04:29;11.77;;;8.60;;
21798;SDS011;24973;47.178;15.316;2022-07-23T02:07:18;9.50;;;8.60;;
21798;SDS011;24973;47.178;15.316;2022-07-23T02:10:07;10.73;;;9.40;;
21798;SDS011;24973;47.178;15.316;2022-07-23T02:12:56;10.87;;;9.77;;
21798;SDS011;24973;47.178;15.316;2022-07-23T02:15:47;9.97;;;9.07;;
21798;SDS011;24973;47.178;15.316;2022-07-23T02:18:36;11.77;;;10.40;;
21798;SDS011;24973;47.178;15.316;2022-07-23T02:21:24;10.30;;;9.27;;
21798;SDS011;24973;47.178;15.316;2022-07-23T02:24:13;9.83;;;8.87;;
21798;SDS011;24973;47.178;15.316;2022-07-23T02:27:02;11.83;;;8.73;;
21798;SDS011;24973;47.178;15.316;2022-07-23T02:29:51;10.70;;;9.80;;
21798;SDS011;24973;47.178;15.316;2022-07-23T02:32:41;11.23;;;10.23;;
21798;SDS011;24973;47.178;15.316;2022-07-23T02:35:30;11.67;;;10.03;;
21798;SDS011;24973;47.178;15.316;2022-07-23T02:38:19;10.83;;;9.73;;
21798;SDS011;24973;47.178;15.316;2022-07-23T02:41:07;10.37;;;9.33;;
21798;SDS011;24973;47.178;15.316;2022-07-23T02:43:57;11.10;;;10.00;;
21798;SDS011;24973;47.178;15.316;2022-07-23T02:46:45;10.67;;;9.43;;
21798;SDS011;24973;47.178;15.316;2022-07-23T02:49:35;16.20;;;10.27;;
21798;SDS011;24973;47.178;15.316;2022-07-23T02:52:24;12.47;;;9.97;;
21798;SDS011;24973;47.178;15.316;2022-07-23T02:55:13;9.87;;;8.70;;
21798;SDS011;24973;47.178;15.316;2022-07-23T02:58:02;13.57;;;9.57;;
21798;SDS011;24973;47.178;15.316;2022-07-23T03:00:50;10.00;;;8.97;;
21798;SDS011;24973;47.178;15.316;2022-07-23T03:03:40;10.73;;;9.80;;
21798;SDS011;24973;47.178;15.316;2022-07-23T03:06:30;14.97;;;10.77;;
21798;SDS011;24973;47.178;15.316;2022-07-23T03:09:19;10.50;;;9.53;;
21798;SDS011;24973;47.178;15.316;2022-07-23T03:12:08;11.17;;;9.57;;
21798;SDS011;24973;47.178;15.316;2022-07-23T03:14:59;10.97;;;9.87;;
21798;SDS011;24973;47.178;15.316;2022-07-23T03:17:47;11.87;;;10.67;;
21798;SDS011;24973;47.178;15.316;2022-07-23T03:20:36;18.87;;;10.43;;
21798;SDS011;24973;47.178;15.316;2022-07-23T03:23:26;12.50;;;10.40;;
21798;SDS011;24973;47.178;15.316;2022-07-23T03:26:15;11.40;;;10.30;;
21798;SDS011;24973;47.178;15.316;2022-07-23T03:29:04;14.10;;;10.67;;
21798;SDS011;24973;47.178;15.316;2022-07-23T03:31:53;11.63;;;10.43;;
21798;SDS011;24973;47.178;15.316;2022-07-23T03:34:41;9.93;;;8.93;;
21798;SDS011;24973;47.178;15.316;2022-07-23T03:37:30;13.80;;;10.47;;
21798;SDS011;24973;47.178;15.316;2022-07-23T03:40:20;10.87;;;9.87;;
21798;SDS011;24973;47.178;15.316;2022-07-23T03:43:09;11.47;;;10.37;;
21798;SDS011;24973;47.178;15.316;2022-07-23T03:45:58;10.80;;;9.70;;
21798;SDS011;24973;47.178;15.316;2022-07-23T03:48:46;11.83;;;9.97;;
21798;SDS011;24973;47.178;15.316;2022-07-23T03:51:36;11.60;;;10.50;;
21798;SDS011;24973;47.178;15.316;2022-07-23T03:54:25;12.30;;;10.80;;
21798;SDS011;24973;47.178;15.316;2022-07-23T03:57:15;11.73;;;9.13;;
21798;SDS011;24973;47.178;15.316;2022-07-23T04:00:05;11.77;;;10.67;;
21798;SDS011;24973;47.178;15.316;2022-07-23T04:02:56;10.83;;;9.73;;
21798;SDS011;24973;47.178;15.316;2022-07-23T04:05:45;13.33;;;12.03;;
21798;SDS011;24973;47.178;15.316;2022-07-23T04:08:33;12.17;;;11.00;;
21798;SDS011;24973;47.178;15.316;2022-07-23T04:11:22;10.57;;;9.57;;
21798;SDS011;24973;47.178;15.316;2022-07-23T04:14:12;14.37;;;10.70;;
21798;SDS011;24973;47.178;15.316;2022-07-23T04:17:01;10.93;;;9.83;;
21798;SDS011;24973;47.178;15.316;2022-07-23T04:19:50;12.83;;;11.43;;
21798;SDS011;24973;47.178;15.316;2022-07-23T04:22:38;13.57;;;11.30;;
21798;SDS011;24973;47.178;15.316;2022-07-23T04:25:27;11.10;;;10.00;;
21798;SDS011;24973;47.178;15.316;2022-07-23T04:28:16;11.47;;;10.47;;
21798;SDS011;24973;47.178;15.316;2022-07-23T04:31:06;11.53;;;10.50;;
21798;SDS011;24973;47.178;15.316;2022-07-23T04:33:55;13.13;;;11.73;;
21798;SDS011;24973;47.178;15.316;2022-07-23T04:36:44;14.53;;;13.07;;
21798;SDS011;24973;47.178;15.316;2022-07-23T04:39:33;13.87;;;12.47;;
21798;SDS011;24973;47.178;15.316;2022-07-23T04:42:21;12.17;;;10.93;;
21798;SDS011;24973;47.178;15.316;2022-07-23T04:45:10;14.53;;;11.47;;
21798;SDS011;24973;47.178;15.316;2022-07-23T04:48:00;11.80;;;10.57;;
21798;SDS011;24973;47.178;15.316;2022-07-23T04:50:49;15.10;;;11.60;;
21798;SDS011;24973;47.178;15.316;2022-07-23T04:53:38;12.87;;;11.67;;
21798;SDS011;24973;47.178;15.316;2022-07-23T04:56:27;12.37;;;11.10;;
21798;SDS011;24973;47.178;15.316;2022-07-23T04:59:16;12.30;;;10.37;;
21798;SDS011;24973;47.178;15.316;2022-07-23T05:02:04;12.83;;;11.43;;
21798;SDS011;24973;47.178;15.316;2022-07-23T05:04:54;12.33;;;11.03;;
21798;SDS011;24973;47.178;15.316;2022-07-23T05:07:43;14.20;;;11.80;;
21798;SDS011;24973;47.178;15.316;2022-07-23T05:10:32;12.77;;;11.57;;
21798;SDS011;24973;47.178;15.316;2022-07-23T05:13:21;12.33;;;11.13;;
21798;SDS011;24973;47.178;15.316;2022-07-23T05:16:10;11.67;;;10.60;;
21798;SDS011;24973;47.178;15.316;2022-07-23T05:18:58;11.27;;;10.27;;
21798;SDS011;24973;47.178;15.316;2022-07-23T05:21:49;11.97;;;10.60;;
21798;SDS011;24973;47.178;15.316;2022-07-23T05:24:37;12.67;;;10.03;;
21798;SDS011;24973;47.178;15.316;2022-07-23T05:27:26;10.93;;;9.93;;
21798;SDS011;24973;47.178;15.316;2022-07-23T05:30:15;11.97;;;10.87;;
21798;SDS011;24973;47.178;15.316;2022-07-23T05:33:04;12.00;;;10.90;;
21798;SDS011;24973;47.178;15.316;2022-07-23T05:35:54;11.37;;;10.17;;
21798;SDS011;24973;47.178;15.316;2022-07-23T05:38:50;11.97;;;10.73;;
21798;SDS011;24973;47.178;15.316;2022-07-23T05:41:39;12.10;;;10.97;;
21798;SDS011;24973;47.178;15.316;2022-07-23T05:44:28;11.63;;;10.37;;
21798;SDS011;24973;47.178;15.316;2022-07-23T05:47:19;11.97;;;10.73;;
21798;SDS011;24973;47.178;15.316;2022-07-23T05:50:08;15.57;;;11.27;;
21798;SDS011;24973;47.178;15.316;2022-07-23T05:52:59;15.00;;;13.47;;
21798;SDS011;24973;47.178;15.316;2022-07-23T05:55:49;12.37;;;10.40;;
21798;SDS011;24973;47.178;15.316;2022-07-23T05:58:38;11.57;;;10.50;;
21798;SDS011;24973;47.178;15.316;2022-07-23T06:01:26;11.77;;;10.67;;
21798;SDS011;24973;47.178;15.316;2022-07-23T06:04:15;11.53;;;10.53;;
21798;SDS011;24973;47.178;15.316;2022-07-23T06:07:04;12.60;;;11.40;;
21798;SDS011;24973;47.178;15.316;2022-07-23T06:09:53;13.43;;;12.17;;
21798;SDS011;24973;47.178;15.316;2022-07-23T06:12:43;13.97;;;12.63;;
21798;SDS011;24973;47.178;15.316;2022-07-23T06:15:32;14.13;;;12.80;;
21798;SDS011;24973;47.178;15.316;2022-07-23T06:18:20;13.07;;;11.73;;
21798;SDS011;24973;47.178;15.316;2022-07-23T06:21:09;13.17;;;10.87;;
21798;SDS011;24973;47.178;15.316;2022-07-23T06:24:08;35.63;;;15.47;;
21798;SDS011;24973;47.178;15.316;2022-07-23T06:26:57;13.33;;;11.93;;
21798;SDS011;24973;47.178;15.316;2022-07-23T06:29:47;14.03;;;11.03;;
21798;SDS011;24973;47.178;15.316;2022-07-23T06:32:36;12.67;;;11.33;;
21798;SDS011;24973;47.178;15.316;2022-07-23T06:35:25;13.40;;;12.20;;
21798;SDS011;24973;47.178;15.316;2022-07-23T06:38:13;12.50;;;11.30;;
21798;SDS011;24973;47.178;15.316;2022-07-23T06:41:02;11.93;;;10.83;;
21798;SDS011;24973;47.178;15.316;2022-07-23T06:43:51;12.10;;;10.90;;
21798;SDS011;24973;47.178;15.316;2022-07-23T06:46:41;11.43;;;10.27;;
21798;SDS011;24973;47.178;15.316;2022-07-23T06:49:30;11.10;;;10.10;;
21798;SDS011;24973;47.178;15.316;2022-07-23T06:52:19;10.93;;;9.77;;
21798;SDS011;24973;47.178;15.316;2022-07-23T06:55:07;10.83;;;9.73;;
21798;SDS011;24973;47.178;15.316;2022-07-23T06:57:57;8.77;;;8.00;;
21798;SDS011;24973;47.178;15.316;2022-07-23T07:00:46;10.07;;;9.07;;
21798;SDS011;24973;47.178;15.316;2022-07-23T07:03:36;9.60;;;8.57;;
21798;SDS011;24973;47.178;15.316;2022-07-23T07:06:25;9.90;;;8.90;;
21798;SDS011;24973;47.178;15.316;2022-07-23T07:09:14;12.40;;;8.80;;
21798;SDS011;24973;47.178;15.316;2022-07-23T07:12:03;9.23;;;8.43;;
21798;SDS011;24973;47.178;15.316;2022-07-23T07:14:52;9.50;;;8.43;;
21798;SDS011;24973;47.178;15.316;2022-07-23T07:17:41;9.13;;;8.20;;
21798;SDS011;24973;47.178;15.316;2022-07-23T07:20:31;9.30;;;8.50;;
21798;SDS011;24973;47.178;15.316;2022-07-23T07:23:22;9.23;;;8.43;;
21798;SDS011;24973;47.178;15.316;2022-07-23T07:26:11;8.57;;;7.67;;
21798;SDS011;24973;47.178;15.316;2022-07-23T07:29:00;10.60;;;9.33;;
21798;SDS011;24973;47.178;15.316;2022-07-23T07:31:50;9.63;;;8.73;;
21798;SDS011;24973;47.178;15.316;2022-07-23T07:34:39;9.10;;;8.23;;
21798;SDS011;24973;47.178;15.316;2022-07-23T07:37:29;8.03;;;7.37;;
21798;SDS011;24973;47.178;15.316;2022-07-23T07:40:18;9.17;;;8.37;;
21798;SDS011;24973;47.178;15.316;2022-07-23T07:43:07;7.37;;;6.67;;
21798;SDS011;24973;47.178;15.316;2022-07-23T07:45:56;17.73;;;8.47;;
21798;SDS011;24973;47.178;15.316;2022-07-23T07:48:45;8.73;;;7.93;;
21798;SDS011;24973;47.178;15.316;2022-07-23T07:51:36;8.57;;;7.60;;
21798;SDS011;24973;47.178;15.316;2022-07-23T07:54:26;7.50;;;6.90;;
21798;SDS011;24973;47.178;15.316;2022-07-23T07:57:15;7.60;;;7.00;;
21798;SDS011;24973;47.178;15.316;2022-07-23T08:00:04;6.93;;;6.33;;
21798;SDS011;24973;47.178;15.316;2022-07-23T08:02:55;7.90;;;6.77;;
21798;SDS011;24973;47.178;15.316;2022-07-23T08:05:44;9.37;;;8.07;;
21798;SDS011;24973;47.178;15.316;2022-07-23T08:08:33;6.50;;;6.00;;
21798;SDS011;24973;47.178;15.316;2022-07-23T08:11:23;8.33;;;6.07;;
21798;SDS011;24973;47.178;15.316;2022-07-23T08:14:12;6.67;;;6.13;;
21798;SDS011;24973;47.178;15.316;2022-07-23T08:17:01;6.18;;;5.68;;
21798;SDS011;24973;47.178;15.316;2022-07-23T08:19:59;6.13;;;5.45;;
21798;SDS011;24973;47.178;15.316;2022-07-23T08:22:48;6.88;;;6.18;;
21798;SDS011;24973;47.178;15.316;2022-07-23T08:25:40;6.45;;;5.95;;
21798;SDS011;24973;47.178;15.316;2022-07-23T08:28:31;5.43;;;4.93;;
21798;SDS011;24973;47.178;15.316;2022-07-23T08:31:20;6.28;;;5.78;;
21798;SDS011;24973;47.178;15.316;2022-07-23T08:34:09;4.90;;;4.40;;
21798;SDS011;24973;47.178;15.316;2022-07-23T08:36:58;6.80;;;5.38;;
21798;SDS011;24973;47.178;15.316;2022-07-23T08:39:46;5.70;;;4.82;;
21798;SDS011;24973;47.178;15.316;2022-07-23T08:42:36;5.63;;;5.13;;
21798;SDS011;24973;47.178;15.316;2022-07-23T08:45:27;4.80;;;4.40;;
21798;SDS011;24973;47.178;15.316;2022-07-23T08:48:17;4.57;;;4.28;;
21798;SDS011;24973;47.178;15.316;2022-07-23T08:51:07;5.15;;;4.65;;
21798;SDS011;24973;47.178;15.316;2022-07-23T08:53:57;4.88;;;4.38;;
21798;SDS011;24973;47.178;15.316;2022-07-23T08:56:46;4.75;;;4.35;;
21798;SDS011;24973;47.178;15.316;2022-07-23T08:59:36;4.43;;;4.03;;
21798;SDS011;24973;47.178;15.316;2022-07-23T09:02:26;5.28;;;4.78;;
21798;SDS011;24973;47.178;15.316;2022-07-23T09:05:15;5.22;;;4.72;;
21798;SDS011;24973;47.178;15.316;2022-07-23T09:08:08;4.75;;;4.28;;
21798;SDS011;24973;47.178;15.316;2022-07-23T09:11:03;5.05;;;4.63;;
21798;SDS011;24973;47.178;15.316;2022-07-23T09:13:55;5.35;;;4.95;;
21798;SDS011;24973;47.178;15.316;2022-07-23T09:16:48;4.38;;;3.97;;
21798;SDS011;24973;47.178;15.316;2022-07-23T09:19:38;4.68;;;4.28;;
21798;SDS011;24973;47.178;15.316;2022-07-23T09:22:27;4.07;;;3.75;;
21798;SDS011;24973;47.178;15.316;2022-07-23T09:25:17;7.00;;;4.50;;
21798;SDS011;24973;47.178;15.316;2022-07-23T09:28:07;4.93;;;4.47;;
21798;SDS011;24973;47.178;15.316;2022-07-23T09:30:55;4.40;;;4.00;;
21798;SDS011;24973;47.178;15.316;2022-07-23T09:33:44;4.05;;;3.75;;
21798;SDS011;24973;47.178;15.316;2022-07-23T09:36:34;4.90;;;4.50;;
21798;SDS011;24973;47.178;15.316;2022-07-23T09:39:28;5.10;;;4.63;;
21798;SDS011;24973;47.178;15.316;2022-07-23T09:42:19;5.82;;;5.15;;
21798;SDS011;24973;47.178;15.316;2022-07-23T09:45:10;4.15;;;3.75;;
21798;SDS011;24973;47.178;15.316;2022-07-23T09:48:09;4.18;;;3.75;;
21798;SDS011;24973;47.178;15.316;2022-07-23T09:51:01;4.90;;;4.50;;
21798;SDS011;24973;47.178;15.316;2022-07-23T09:53:52;5.93;;;4.43;;
21798;SDS011;24973;47.178;15.316;2022-07-23T09:56:41;4.82;;;4.32;;
21798;SDS011;24973;47.178;15.316;2022-07-23T09:59:31;4.65;;;4.25;;
21798;SDS011;24973;47.178;15.316;2022-07-23T10:02:21;4.25;;;3.92;;
21798;SDS011;24973;47.178;15.316;2022-07-23T10:05:13;4.38;;;4.00;;
21798;SDS011;24973;47.178;15.316;2022-07-23T10:08:03;4.55;;;4.15;;
21798;SDS011;24973;47.178;15.316;2022-07-23T10:10:56;4.30;;;3.90;;
21798;SDS011;24973;47.178;15.316;2022-07-23T10:13:45;4.55;;;4.15;;
21798;SDS011;24973;47.178;15.316;2022-07-23T10:16:41;4.80;;;3.95;;
21798;SDS011;24973;47.178;15.316;2022-07-23T10:19:30;5.50;;;5.00;;
21798;SDS011;24973;47.178;15.316;2022-07-23T10:22:20;7.40;;;6.70;;
21798;SDS011;24973;47.178;15.316;2022-07-23T10:25:15;19.42;;;17.98;;
21798;SDS011;24973;47.178;15.316;2022-07-23T10:28:22;14.43;;;13.23;;
21798;SDS011;24973;47.178;15.316;2022-07-23T10:31:37;42.92;;;39.63;;
21798;SDS011;24973;47.178;15.316;2022-07-23T10:34:44;10.63;;;9.75;;
21798;SDS011;24973;47.178;15.316;2022-07-23T10:37:41;4.57;;;4.18;;
21798;SDS011;24973;47.178;15.316;2022-07-23T10:40:33;8.00;;;6.30;;
21798;SDS011;24973;47.178;15.316;2022-07-23T10:43:24;501.40;;;397.33;;
21798;SDS011;24973;47.178;15.316;2022-07-23T10:46:23;474.27;;;406.00;;
21798;SDS011;24973;47.178;15.316;2022-07-23T10:49:20;298.02;;;273.83;;
21798;SDS011;24973;47.178;15.316;2022-07-23T11:01:51;7.03;;;6.40;;
21798;SDS011;24973;47.178;15.316;2022-07-23T11:04:49;6.28;;;5.68;;
21798;SDS011;24973;47.178;15.316;2022-07-23T11:11:11;4.25;;;3.95;;
21798;SDS011;24973;47.178;15.316;2022-07-23T11:14:02;4.65;;;4.20;;
21798;SDS011;24973;47.178;15.316;2022-07-23T11:16:52;4.13;;;3.80;;
21798;SDS011;24973;47.178;15.316;2022-07-23T11:23:08;3.92;;;3.63;;
21798;SDS011;24973;47.178;15.316;2022-07-23T11:25:57;4.97;;;3.15;;
21798;SDS011;24973;47.178;15.316;2022-07-23T11:28:46;3.83;;;3.47;;
21798;SDS011;24973;47.178;15.316;2022-07-23T11:31:36;3.47;;;3.17;;
21798;SDS011;24973;47.178;15.316;2022-07-23T11:34:27;4.00;;;3.70;;
21798;SDS011;24973;47.178;15.316;2022-07-23T11:37:34;3.97;;;3.45;;
21798;SDS011;24973;47.178;15.316;2022-07-23T11:40:25;3.47;;;3.20;;
21798;SDS011;24973;47.178;15.316;2022-07-23T11:43:15;3.13;;;2.83;;
21798;SDS011;24973;47.178;15.316;2022-07-23T11:46:04;4.57;;;3.00;;
21798;SDS011;24973;47.178;15.316;2022-07-23T11:49:02;3.50;;;3.20;;
21798;SDS011;24973;47.178;15.316;2022-07-23T11:52:03;4.32;;;3.30;;
21798;SDS011;24973;47.178;15.316;2022-07-23T11:54:53;3.78;;;3.47;;
21798;SDS011;24973;47.178;15.316;2022-07-23T11:57:44;6.25;;;5.75;;
21798;SDS011;24973;47.178;15.316;2022-07-23T12:00:33;3.30;;;3.10;;
21798;SDS011;24973;47.178;15.316;2022-07-23T12:03:26;3.10;;;2.80;;
21798;SDS011;24973;47.178;15.316;2022-07-23T12:06:17;3.70;;;3.42;;
21798;SDS011;24973;47.178;15.316;2022-07-23T12:09:06;5.20;;;3.13;;
21798;SDS011;24973;47.178;15.316;2022-07-23T12:11:58;2.78;;;2.58;;
21798;SDS011;24973;47.178;15.316;2022-07-23T12:14:49;3.45;;;3.25;;
21798;SDS011;24973;47.178;15.316;2022-07-23T12:17:40;3.60;;;3.30;;
21798;SDS011;24973;47.178;15.316;2022-07-23T12:20:36;3.15;;;2.95;;
21798;SDS011;24973;47.178;15.316;2022-07-23T12:23:30;2.90;;;2.70;;
21798;SDS011;24973;47.178;15.316;2022-07-23T12:26:19;3.55;;;3.25;;
21798;SDS011;24973;47.178;15.316;2022-07-23T12:29:08;3.55;;;2.70;;
21798;SDS011;24973;47.178;15.316;2022-07-23T12:31:57;3.00;;;2.80;;
21798;SDS011;24973;47.178;15.316;2022-07-23T12:34:46;2.90;;;2.60;;
21798;SDS011;24973;47.178;15.316;2022-07-23T12:37:38;4.20;;;3.70;;
21798;SDS011;24973;47.178;15.316;2022-07-23T12:40:31;5.88;;;3.40;;
21798;SDS011;24973;47.178;15.316;2022-07-23T12:43:24;4.50;;;4.10;;
21798;SDS011;24973;47.178;15.316;2022-07-23T12:46:15;4.10;;;3.70;;
21798;SDS011;24973;47.178;15.316;2022-07-23T12:49:06;3.65;;;3.42;;
21798;SDS011;24973;47.178;15.316;2022-07-23T12:51:55;5.20;;;3.80;;
21798;SDS011;24973;47.178;15.316;2022-07-23T12:54:44;3.90;;;3.60;;
21798;SDS011;24973;47.178;15.316;2022-07-23T12:57:46;4.28;;;3.88;;
21798;SDS011;24973;47.178;15.316;2022-07-23T13:03:55;3.85;;;3.55;;
21798;SDS011;24973;47.178;15.316;2022-07-23T13:06:47;4.28;;;3.88;;
21798;SDS011;24973;47.178;15.316;2022-07-23T13:09:38;4.78;;;3.97;;
21798;SDS011;24973;47.178;15.316;2022-07-23T13:12:27;5.25;;;3.63;;
21798;SDS011;24973;47.178;15.316;2022-07-23T13:15:18;3.72;;;3.42;;
21798;SDS011;24973;47.178;15.316;2022-07-23T13:18:07;4.10;;;3.70;;
21798;SDS011;24973;47.178;15.316;2022-07-23T13:20:56;3.70;;;3.40;;
21798;SDS011;24973;47.178;15.316;2022-07-23T13:23:46;4.13;;;3.72;;
21798;SDS011;24973;47.178;15.316;2022-07-23T13:26:35;3.70;;;3.40;;
21798;SDS011;24973;47.178;15.316;2022-07-23T13:29:25;3.90;;;3.60;;
21798;SDS011;24973;47.178;15.316;2022-07-23T13:32:15;4.10;;;3.80;;
21798;SDS011;24973;47.178;15.316;2022-07-23T13:35:04;5.15;;;4.47;;
21798;SDS011;24973;47.178;15.316;2022-07-23T13:37:54;4.07;;;3.78;;
21798;SDS011;24973;47.178;15.316;2022-07-23T13:40:44;4.13;;;3.72;;
21798;SDS011;24973;47.178;15.316;2022-07-23T13:43:35;4.60;;;3.90;;
21798;SDS011;24973;47.178;15.316;2022-07-23T13:46:24;3.67;;;3.38;;
21798;SDS011;24973;47.178;15.316;2022-07-23T13:49:14;3.60;;;3.38;;
21798;SDS011;24973;47.178;15.316;2022-07-23T13:52:03;4.15;;;3.85;;
21798;SDS011;24973;47.178;15.316;2022-07-23T13:54:53;3.40;;;3.10;;
21798;SDS011;24973;47.178;15.316;2022-07-23T13:57:42;4.13;;;3.83;;
21798;SDS011;24973;47.178;15.316;2022-07-23T14:00:31;4.32;;;3.90;;
21798;SDS011;24973;47.178;15.316;2022-07-23T14:03:36;4.50;;;3.65;;
21798;SDS011;24973;47.178;15.316;2022-07-23T14:06:27;4.07;;;3.67;;
21798;SDS011;24973;47.178;15.316;2022-07-23T14:09:15;4.20;;;3.90;;
21798;SDS011;24973;47.178;15.316;2022-07-23T14:12:04;3.97;;;3.67;;
21798;SDS011;24973;47.178;15.316;2022-07-23T14:14:54;3.75;;;3.45;;
21798;SDS011;24973;47.178;15.316;2022-07-23T14:17:43;3.83;;;3.53;;
21798;SDS011;24973;47.178;15.316;2022-07-23T14:20:34;4.43;;;3.90;;
21798;SDS011;24973;47.178;15.316;2022-07-23T14:23:24;4.00;;;3.70;;
21798;SDS011;24973;47.178;15.316;2022-07-23T14:26:15;4.32;;;3.90;;
21798;SDS011;24973;47.178;15.316;2022-07-23T14:29:04;4.70;;;4.35;;
21798;SDS011;24973;47.178;15.316;2022-07-23T14:31:53;5.30;;;4.55;;
21798;SDS011;24973;47.178;15.316;2022-07-23T14:34:42;3.88;;;3.58;;
21798;SDS011;24973;47.178;15.316;2022-07-23T14:37:30;4.18;;;3.88;;
21798;SDS011;24973;47.178;15.316;2022-07-23T14:40:22;4.35;;;3.95;;
21798;SDS011;24973;47.178;15.316;2022-07-23T14:43:11;3.83;;;3.53;;
21798;SDS011;24973;47.178;15.316;2022-07-23T14:46:00;3.70;;;3.40;;
21798;SDS011;24973;47.178;15.316;2022-07-23T14:48:49;4.18;;;3.78;;
21798;SDS011;24973;47.178;15.316;2022-07-23T14:51:38;4.75;;;3.90;;
21798;SDS011;24973;47.178;15.316;2022-07-23T14:54:29;4.07;;;3.78;;
21798;SDS011;24973;47.178;15.316;2022-07-23T14:57:19;4.20;;;3.90;;
21798;SDS011;24973;47.178;15.316;2022-07-23T15:00:12;4.57;;;3.70;;
21798;SDS011;24973;47.178;15.316;2022-07-23T15:03:02;4.03;;;3.72;;
21798;SDS011;24973;47.178;15.316;2022-07-23T15:05:51;3.40;;;3.20;;
21798;SDS011;24973;47.178;15.316;2022-07-23T15:08:40;3.90;;;3.60;;
21798;SDS011;24973;47.178;15.316;2022-07-23T15:11:28;5.20;;;3.70;;
21798;SDS011;24973;47.178;15.316;2022-07-23T15:14:21;4.40;;;4.03;;
21798;SDS011;24973;47.178;15.316;2022-07-23T15:17:10;3.83;;;3.53;;
21798;SDS011;24973;47.178;15.316;2022-07-23T15:19:59;4.60;;;4.20;;
21798;SDS011;24973;47.178;15.316;2022-07-23T15:22:47;3.50;;;3.20;;
21798;SDS011;24973;47.178;15.316;2022-07-23T15:25:36;3.92;;;3.08;;
21798;SDS011;24973;47.178;15.316;2022-07-23T15:28:27;3.33;;;3.03;;
21798;SDS011;24973;47.178;15.316;2022-07-23T15:31:17;4.82;;;3.40;;
21798;SDS011;24973;47.178;15.316;2022-07-23T15:34:06;4.13;;;3.83;;
21798;SDS011;24973;47.178;15.316;2022-07-23T15:36:55;4.82;;;3.88;;
21798;SDS011;24973;47.178;15.316;2022-07-23T15:39:44;3.60;;;3.30;;
21798;SDS011;24973;47.178;15.316;2022-07-23T15:42:32;6.13;;;3.72;;
21798;SDS011;24973;47.178;15.316;2022-07-23T15:45:21;3.70;;;3.40;;
21798;SDS011;24973;47.178;15.316;2022-07-23T15:48:11;4.25;;;3.85;;
21798;SDS011;24973;47.178;15.316;2022-07-23T15:51:00;3.65;;;3.35;;
21798;SDS011;24973;47.178;15.316;2022-07-23T15:53:49;4.38;;;3.97;;
21798;SDS011;24973;47.178;15.316;2022-07-23T15:56:38;3.63;;;3.33;;
21798;SDS011;24973;47.178;15.316;2022-07-23T15:59:27;5.43;;;4.97;;
21798;SDS011;24973;47.178;15.316;2022-07-23T16:02:15;3.88;;;3.58;;
21798;SDS011;24973;47.178;15.316;2022-07-23T16:05:06;3.65;;;3.35;;
21798;SDS011;24973;47.178;15.316;2022-07-23T16:07:56;3.80;;;3.50;;
21798;SDS011;24973;47.178;15.316;2022-07-23T16:10:45;3.45;;;3.25;;
21798;SDS011;24973;47.178;15.316;2022-07-23T16:13:34;3.63;;;3.33;;
21798;SDS011;24973;47.178;15.316;2022-07-23T16:16:22;4.10;;;3.70;;
21798;SDS011;24973;47.178;15.316;2022-07-23T16:19:12;4.03;;;3.70;;
21798;SDS011;24973;47.178;15.316;2022-07-23T16:22:03;3.83;;;3.53;;
21798;SDS011;24973;47.178;15.316;2022-07-23T16:24:51;3.58;;;3.35;;
21798;SDS011;24973;47.178;15.316;2022-07-23T16:27:40;3.83;;;3.53;;
21798;SDS011;24973;47.178;15.316;2022-07-23T16:30:29;3.92;;;3.63;;
21798;SDS011;24973;47.178;15.316;2022-07-23T16:33:18;3.70;;;3.40;;
21798;SDS011;24973;47.178;15.316;2022-07-23T16:36:07;4.45;;;4.05;;
21798;SDS011;24973;47.178;15.316;2022-07-23T16:38:58;4.38;;;4.00;;
21798;SDS011;24973;47.178;15.316;2022-07-23T16:41:50;4.28;;;3.75;;
21798;SDS011;24973;47.178;15.316;2022-07-23T16:44:38;3.97;;;3.67;;
21798;SDS011;24973;47.178;15.316;2022-07-23T16:47:27;3.47;;;3.17;;
21798;SDS011;24973;47.178;15.316;2022-07-23T16:50:16;6.05;;;4.18;;
21798;SDS011;24973;47.178;15.316;2022-07-23T16:53:05;4.10;;;3.80;;
21798;SDS011;24973;47.178;15.316;2022-07-23T16:55:55;4.78;;;4.38;;
21798;SDS011;24973;47.178;15.316;2022-07-23T16:58:44;5.10;;;4.20;;